sensor_id;sensor_type;location;lat;lon;timestamp;pressure;altitude;pressure_sealevel;temperature;humidity
45253;BME280;63171;50.520;30.486;2023-05-12T00:00:32;100792.88;;;14.56;30.41
45253;BME280;63171;50.520;30.486;2023-05-12T00:04:07;100794.63;;;14.41;30.62
45253;BME280;63171;50.520;30.486;2023-05-12T00:04:58;100801.78;;;14.39;30.58
45253;BME280;63171;50.520;30.486;2023-05-12T00:05:48;100803.47;;;14.40;30.67
45253;BME280;63171;50.520;30.486;2023-05-12T00:06:39;100796.34;;;14.42;30.69
45253;BME280;63171;50.520;30.486;2023-05-12T00:07:28;100798.91;;;14.44;30.67
45253;BME280;63171;50.520;30.486;2023-05-12T00:08:19;100792.69;;;14.45;30.72
45253;BME280;63171;50.520;30.486;2023-05-12T00:09:08;100793.53;;;14.45;30.76
45253;BME280;63171;50.520;30.486;2023-05-12T00:09:59;100795.56;;;14.40;30.64
45253;BME280;63171;50.520;30.486;2023-05-12T00:10:49;100795.56;;;14.40;30.71
45253;BME280;63171;50.520;30.486;2023-05-12T00:11:40;100800.00;;;14.40;30.76
45253;BME280;63171;50.520;30.486;2023-05-12T00:12:30;100790.41;;;14.39;30.87
45253;BME280;63171;50.520;30.486;2023-05-12T00:13:23;100791.25;;;14.39;30.95
45253;BME280;63171;50.520;30.486;2023-05-12T00:14:13;100799.34;;;14.36;30.87
45253;BME280;63171;50.520;30.486;2023-05-12T00:15:05;100793.25;;;14.36;30.94
45253;BME280;63171;50.520;30.486;2023-05-12T00:15:55;100798.59;;;14.34;31.03
45253;BME280;63171;50.520;30.486;2023-05-12T00:16:47;100803.22;;;14.31;30.95
45253;BME280;63171;50.520;30.486;2023-05-12T00:17:39;100801.63;;;14.28;30.86
45253;BME280;63171;50.520;30.486;2023-05-12T00:18:30;100800.69;;;14.29;30.91
45253;BME280;63171;50.520;30.486;2023-05-12T00:19:20;100802.47;;;14.29;31.25
45253;BME280;63171;50.520;30.486;2023-05-12T00:20:11;100814.78;;;14.28;31.14
45253;BME280;63171;50.520;30.486;2023-05-12T00:21:01;100805.28;;;14.26;31.30
45253;BME280;63171;50.520;30.486;2023-05-12T00:21:51;100801.63;;;14.28;31.13
45253;BME280;63171;50.520;30.486;2023-05-12T00:22:41;100800.22;;;14.23;31.23
45253;BME280;63171;50.520;30.486;2023-05-12T00:23:31;100796.75;;;14.22;31.23
45253;BME280;63171;50.520;30.486;2023-05-12T00:24:21;100798.63;;;14.20;31.30
45253;BME280;63171;50.520;30.486;2023-05-12T00:25:11;100791.56;;;14.20;31.31
45253;BME280;63171;50.520;30.486;2023-05-12T00:26:01;100796.84;;;14.20;31.58
45253;BME280;63171;50.520;30.486;2023-05-12T00:26:52;100801.25;;;14.20;31.57
45253;BME280;63171;50.520;30.486;2023-05-12T00:27:42;100796.94;;;14.05;31.39
45253;BME280;63171;50.520;30.486;2023-05-12T00:28:34;100803.53;;;14.12;31.51
45253;BME280;63171;50.520;30.486;2023-05-12T00:29:24;100797.59;;;14.08;31.25
45253;BME280;63171;50.520;30.486;2023-05-12T00:30:15;100809.09;;;14.07;31.63
45253;BME280;63171;50.520;30.486;2023-05-12T00:31:04;100800.63;;;14.16;31.63
45253;BME280;63171;50.520;30.486;2023-05-12T00:31:55;100800.88;;;14.12;31.76
45253;BME280;63171;50.520;30.486;2023-05-12T00:32:45;100797.78;;;14.05;31.61
45253;BME280;63171;50.520;30.486;2023-05-12T00:33:36;100804.00;;;14.04;31.41
45253;BME280;63171;50.520;30.486;2023-05-12T00:34:26;100804.28;;;14.00;31.62
45253;BME280;63171;50.520;30.486;2023-05-12T00:35:17;100799.41;;;13.94;31.53
45253;BME280;63171;50.520;30.486;2023-05-12T00:36:07;100803.22;;;13.88;31.83
45253;BME280;63171;50.520;30.486;2023-05-12T00:36:58;100801.72;;;13.84;31.84
45253;BME280;63171;50.520;30.486;2023-05-12T00:37:48;100805.31;;;13.83;31.97
45253;BME280;63171;50.520;30.486;2023-05-12T00:38:39;100803.72;;;13.80;32.01
45253;BME280;63171;50.520;30.486;2023-05-12T00:39:29;100803.22;;;13.74;31.81
45253;BME280;63171;50.520;30.486;2023-05-12T00:40:19;100803.69;;;13.66;31.91
45253;BME280;63171;50.520;30.486;2023-05-12T00:41:09;100804.44;;;13.68;31.99
45253;BME280;63171;50.520;30.486;2023-05-12T00:41:59;100800.03;;;13.69;32.10
45253;BME280;63171;50.520;30.486;2023-05-12T00:42:49;100805.00;;;13.73;32.08
45253;BME280;63171;50.520;30.486;2023-05-12T00:43:41;100806.63;;;13.76;32.22
45253;BME280;63171;50.520;30.486;2023-05-12T00:44:31;100806.63;;;13.76;32.25
45253;BME280;63171;50.520;30.486;2023-05-12T00:45:21;100809.81;;;13.67;32.24
45253;BME280;63171;50.520;30.486;2023-05-12T00:46:11;100812.59;;;13.49;32.05
45253;BME280;63171;50.520;30.486;2023-05-12T00:47:02;100808.34;;;13.47;32.12
45253;BME280;63171;50.520;30.486;2023-05-12T00:47:52;100815.06;;;13.52;32.25
45253;BME280;63171;50.520;30.486;2023-05-12T00:48:43;100816.75;;;13.53;32.39
45253;BME280;63171;50.520;30.486;2023-05-12T00:49:33;100816.56;;;13.56;32.36
45253;BME280;63171;50.520;30.486;2023-05-12T00:50:25;100817.31;;;13.58;32.56
45253;BME280;63171;50.520;30.486;2023-05-12T00:51:15;100817.31;;;13.58;32.51
45253;BME280;63171;50.520;30.486;2023-05-12T00:52:06;100816.47;;;13.58;32.31
45253;BME280;63171;50.520;30.486;2023-05-12T00:52:57;100813.63;;;13.61;32.34
45253;BME280;63171;50.520;30.486;2023-05-12T00:53:51;100811.28;;;13.56;32.50
45253;BME280;63171;50.520;30.486;2023-05-12T00:54:41;100812.22;;;13.55;32.63
45253;BME280;63171;50.520;30.486;2023-05-12T00:55:33;100812.31;;;13.54;32.40
45253;BME280;63171;50.520;30.486;2023-05-12T00:56:24;100809.50;;;13.57;32.43
45253;BME280;63171;50.520;30.486;2023-05-12T00:57:15;100813.91;;;13.56;32.54
45253;BME280;63171;50.520;30.486;2023-05-12T00:58:05;100818.16;;;13.59;32.61
45253;BME280;63171;50.520;30.486;2023-05-12T00:58:59;100818.34;;;13.56;32.55
45253;BME280;63171;50.520;30.486;2023-05-12T00:59:49;100817.59;;;13.54;32.65
45253;BME280;63171;50.520;30.486;2023-05-12T01:00:39;100822.94;;;13.52;32.66
45253;BME280;63171;50.520;30.486;2023-05-12T01:01:30;100827.19;;;13.55;32.73
45253;BME280;63171;50.520;30.486;2023-05-12T01:02:20;100820.88;;;13.57;32.76
45253;BME280;63171;50.520;30.486;2023-05-12T01:03:12;100817.41;;;13.57;32.98
45253;BME280;63171;50.520;30.486;2023-05-12T01:04:03;100818.75;;;13.64;32.72
45253;BME280;63171;50.520;30.486;2023-05-12T01:04:53;100812.66;;;13.48;32.77
45253;BME280;63171;50.520;30.486;2023-05-12T01:05:49;100820.66;;;13.46;32.92
45253;BME280;63171;50.520;30.486;2023-05-12T01:06:53;100814.56;;;13.46;32.87
45253;BME280;63171;50.520;30.486;2023-05-12T01:07:45;100825.06;;;13.46;33.02
45253;BME280;63171;50.520;30.486;2023-05-12T01:08:36;100818.13;;;13.45;32.96
45253;BME280;63171;50.520;30.486;2023-05-12T01:09:27;100815.50;;;13.45;32.95
45253;BME280;63171;50.520;30.486;2023-05-12T01:10:20;100817.38;;;13.43;32.74
45253;BME280;63171;50.520;30.486;2023-05-12T01:11:10;100816.44;;;13.44;32.94
45253;BME280;63171;50.520;30.486;2023-05-12T01:12:02;100820.84;;;13.43;32.96
45253;BME280;63171;50.520;30.486;2023-05-12T01:12:54;100823.47;;;13.43;32.97
45253;BME280;63171;50.520;30.486;2023-05-12T01:13:45;100819.06;;;13.44;33.16
45253;BME280;63171;50.520;30.486;2023-05-12T01:14:36;100818.97;;;13.45;33.21
45253;BME280;63171;50.520;30.486;2023-05-12T01:15:28;100816.44;;;13.44;33.12
45253;BME280;63171;50.520;30.486;2023-05-12T01:16:22;100821.88;;;13.41;33.13
45253;BME280;63171;50.520;30.486;2023-05-12T01:17:17;100822.16;;;13.36;33.21
45253;BME280;63171;50.520;30.486;2023-05-12T01:18:09;100817.75;;;13.37;33.34
45253;BME280;63171;50.520;30.486;2023-05-12T01:19:05;100816.97;;;13.35;33.30
45253;BME280;63171;50.520;30.486;2023-05-12T01:19:58;100822.22;;;13.35;33.29
45253;BME280;63171;50.520;30.486;2023-05-12T01:20:50;100813.47;;;13.34;33.29
45253;BME280;63171;50.520;30.486;2023-05-12T01:21:42;100818.00;;;13.32;33.50
45253;BME280;63171;50.520;30.486;2023-05-12T01:22:32;100816.22;;;13.32;33.36
45253;BME280;63171;50.520;30.486;2023-05-12T01:23:28;100820.44;;;13.35;33.32
45253;BME280;63171;50.520;30.486;2023-05-12T01:24:23;100817.75;;;13.37;33.39
45253;BME280;63171;50.520;30.486;2023-05-12T01:25:17;100824.28;;;13.29;33.42
45253;BME280;63171;50.520;30.486;2023-05-12T01:26:09;100810.09;;;13.32;33.47
45253;BME280;63171;50.520;30.486;2023-05-12T01:27:01;100813.34;;;13.37;33.39
45253;BME280;63171;50.520;30.486;2023-05-12T01:27:52;100816.31;;;13.31;33.80
45253;BME280;63171;50.520;30.486;2023-05-12T01:28:45;100819.66;;;13.19;33.59
45253;BME280;63171;50.520;30.486;2023-05-12T01:29:35;100821.09;;;13.24;33.48
45253;BME280;63171;50.520;30.486;2023-05-12T01:30:27;100815.16;;;13.05;33.47
45253;BME280;63171;50.520;30.486;2023-05-12T01:31:18;100827.69;;;13.16;33.73
45253;BME280;63171;50.520;30.486;2023-05-12T01:32:09;100814.28;;;13.20;33.70
45253;BME280;63171;50.520;30.486;2023-05-12T01:32:59;100812.34;;;13.24;33.71
45253;BME280;63171;50.520;30.486;2023-05-12T01:33:51;100811.56;;;13.22;33.81
45253;BME280;63171;50.520;30.486;2023-05-12T01:34:41;100817.44;;;13.27;33.85
45253;BME280;63171;50.520;30.486;2023-05-12T01:35:32;100814.97;;;13.08;34.07
45253;BME280;63171;50.520;30.486;2023-05-12T01:36:23;100814.53;;;13.16;33.98
45253;BME280;63171;50.520;30.486;2023-05-12T01:37:14;100823.03;;;13.21;33.81
45253;BME280;63171;50.520;30.486;2023-05-12T01:38:04;100818.47;;;13.24;33.91
45253;BME280;63171;50.520;30.486;2023-05-12T01:38:58;100817.59;;;13.08;33.93
45253;BME280;63171;50.520;30.486;2023-05-12T01:39:48;100818.38;;;13.10;34.01
45253;BME280;63171;50.520;30.486;2023-05-12T01:40:42;100820.53;;;13.18;34.08
45253;BME280;63171;50.520;30.486;2023-05-12T01:41:34;100828.22;;;13.22;33.91
45253;BME280;63171;50.520;30.486;2023-05-12T01:42:24;100814.28;;;13.20;34.01
45253;BME280;63171;50.520;30.486;2023-05-12T01:43:15;100824.72;;;13.22;34.09
45253;BME280;63171;50.520;30.486;2023-05-12T01:44:05;100819.66;;;13.19;34.22
45253;BME280;63171;50.520;30.486;2023-05-12T01:44:55;100820.63;;;13.16;34.26
45253;BME280;63171;50.520;30.486;2023-05-12T01:45:45;100822.84;;;13.08;34.00
45253;BME280;63171;50.520;30.486;2023-05-12T01:46:36;100817.34;;;13.13;34.32
45253;BME280;63171;50.520;30.486;2023-05-12T01:47:27;100820.81;;;13.13;34.25
45253;BME280;63171;50.520;30.486;2023-05-12T01:48:31;100825.16;;;13.14;34.41
45253;BME280;63171;50.520;30.486;2023-05-12T01:49:22;100820.06;;;13.11;34.27
45253;BME280;63171;50.520;30.486;2023-05-12T01:50:12;100821.84;;;13.11;34.37
45253;BME280;63171;50.520;30.486;2023-05-12T01:51:06;100813.06;;;12.80;34.42
45253;BME280;63171;50.520;30.486;2023-05-12T01:51:57;100821.28;;;12.90;34.62
45253;BME280;63171;50.520;30.486;2023-05-12T01:52:52;100816.25;;;13.01;34.70
45253;BME280;63171;50.520;30.486;2023-05-12T01:53:43;100819.47;;;13.06;34.58
45253;BME280;63171;50.520;30.486;2023-05-12T01:54:33;100817.59;;;13.08;34.63
45253;BME280;63171;50.520;30.486;2023-05-12T01:55:24;100827.03;;;13.12;34.71
45253;BME280;63171;50.520;30.486;2023-05-12T01:56:19;100814.72;;;13.13;34.53
45253;BME280;63171;50.520;30.486;2023-05-12T01:57:11;100813.59;;;13.17;34.55
45253;BME280;63171;50.520;30.486;2023-05-12T01:58:02;100817.06;;;13.17;34.67
45253;BME280;63171;50.520;30.486;2023-05-12T01:58:53;100821.47;;;13.17;34.51
45253;BME280;63171;50.520;30.486;2023-05-12T01:59:43;100822.50;;;13.14;34.82
45253;BME280;63171;50.520;30.486;2023-05-12T02:00:34;100819.78;;;13.16;34.74
45253;BME280;63171;50.520;30.486;2023-05-12T02:01:25;100822.28;;;13.19;34.81
45253;BME280;63171;50.520;30.486;2023-05-12T02:02:18;100817.75;;;13.21;34.80
45253;BME280;63171;50.520;30.486;2023-05-12T02:03:08;100824.81;;;13.20;34.71
45253;BME280;63171;50.520;30.486;2023-05-12T02:03:59;100822.97;;;13.22;34.87
45253;BME280;63171;50.520;30.486;2023-05-12T02:04:51;100822.19;;;13.20;34.74
45253;BME280;63171;50.520;30.486;2023-05-12T02:05:42;100826.59;;;13.20;34.77
45253;BME280;63171;50.520;30.486;2023-05-12T02:06:32;100822.28;;;13.19;34.72
45253;BME280;63171;50.520;30.486;2023-05-12T02:07:22;100814.44;;;13.17;34.68
45253;BME280;63171;50.520;30.486;2023-05-12T02:08:12;100820.50;;;13.19;34.86
45253;BME280;63171;50.520;30.486;2023-05-12T02:09:03;100819.56;;;13.20;34.71
45253;BME280;63171;50.520;30.486;2023-05-12T02:09:53;100820.16;;;13.10;34.86
45253;BME280;63171;50.520;30.486;2023-05-12T02:10:43;100817.44;;;13.11;34.77
45253;BME280;63171;50.520;30.486;2023-05-12T02:11:35;100825.16;;;13.14;34.90
45253;BME280;63171;50.520;30.486;2023-05-12T02:12:27;100828.53;;;13.16;34.83
45253;BME280;63171;50.520;30.486;2023-05-12T02:13:17;100825.91;;;13.16;34.95
45253;BME280;63171;50.520;30.486;2023-05-12T02:14:07;100827.53;;;13.19;34.97
45253;BME280;63171;50.520;30.486;2023-05-12T02:14:58;100830.06;;;13.20;35.27
45253;BME280;63171;50.520;30.486;2023-05-12T02:15:48;100829.06;;;13.07;34.96
45253;BME280;63171;50.520;30.486;2023-05-12T02:16:38;100827.97;;;13.11;35.03
45253;BME280;63171;50.520;30.486;2023-05-12T02:17:29;100825.25;;;13.13;34.88
45253;BME280;63171;50.520;30.486;2023-05-12T02:18:22;100830.31;;;13.16;35.14
45253;BME280;63171;50.520;30.486;2023-05-12T02:19:13;100826.75;;;13.17;34.98
45253;BME280;63171;50.520;30.486;2023-05-12T02:20:04;100825.75;;;13.19;34.87
45253;BME280;63171;50.520;30.486;2023-05-12T02:20:55;100826.69;;;13.18;35.25
45253;BME280;63171;50.520;30.486;2023-05-12T02:21:44;100829.22;;;13.20;34.76
45253;BME280;63171;50.520;30.486;2023-05-12T02:22:35;100832.69;;;13.20;35.08
45253;BME280;63171;50.520;30.486;2023-05-12T02:23:24;100830.91;;;13.21;35.07
45253;BME280;63171;50.520;30.486;2023-05-12T02:24:15;100833.50;;;13.22;35.16
45253;BME280;63171;50.520;30.486;2023-05-12T02:25:06;100829.91;;;13.23;34.99
45253;BME280;63171;50.520;30.486;2023-05-12T02:25:58;100831.63;;;13.24;35.17
45253;BME280;63171;50.520;30.486;2023-05-12T02:26:47;100828.97;;;13.24;35.08
45253;BME280;63171;50.520;30.486;2023-05-12T02:27:39;100832.38;;;13.26;35.35
45253;BME280;63171;50.520;30.486;2023-05-12T02:28:29;100831.44;;;13.27;35.33
45253;BME280;63171;50.520;30.486;2023-05-12T02:29:20;100833.88;;;13.30;35.21
45253;BME280;63171;50.520;30.486;2023-05-12T02:30:11;100834.63;;;13.32;35.39
45253;BME280;63171;50.520;30.486;2023-05-12T02:31:02;100833.78;;;13.32;35.32
45253;BME280;63171;50.520;30.486;2023-05-12T02:31:53;100828.44;;;13.34;35.42
45253;BME280;63171;50.520;30.486;2023-05-12T02:32:44;100836.22;;;13.35;35.46
45253;BME280;63171;50.520;30.486;2023-05-12T02:33:34;100830.81;;;13.38;35.45
45253;BME280;63171;50.520;30.486;2023-05-12T02:34:25;100829.88;;;13.39;35.44
45253;BME280;63171;50.520;30.486;2023-05-12T02:35:15;100823.66;;;13.40;35.44
45253;BME280;63171;50.520;30.486;2023-05-12T02:36:06;100823.56;;;13.42;35.60
45253;BME280;63171;50.520;30.486;2023-05-12T02:36:56;100829.69;;;13.42;35.42
45253;BME280;63171;50.520;30.486;2023-05-12T02:37:47;100832.22;;;13.44;35.47
45253;BME280;63171;50.520;30.486;2023-05-12T02:38:37;100834.75;;;13.45;35.42
45253;BME280;63171;50.520;30.486;2023-05-12T02:39:28;100832.88;;;13.47;35.57
45253;BME280;63171;50.520;30.486;2023-05-12T02:40:19;100833.81;;;13.46;35.56
45253;BME280;63171;50.520;30.486;2023-05-12T02:41:10;100830.19;;;13.49;35.56
45253;BME280;63171;50.520;30.486;2023-05-12T02:42:00;100830.00;;;13.52;35.67
45253;BME280;63171;50.520;30.486;2023-05-12T02:42:52;100832.44;;;13.55;35.63
45253;BME280;63171;50.520;30.486;2023-05-12T02:43:42;100836.66;;;13.57;35.64
45253;BME280;63171;50.520;30.486;2023-05-12T02:44:32;100834.88;;;13.58;35.59
45253;BME280;63171;50.520;30.486;2023-05-12T02:45:23;100831.91;;;13.64;35.84
45253;BME280;63171;50.520;30.486;2023-05-12T02:46:12;100830.97;;;13.65;35.66
45253;BME280;63171;50.520;30.486;2023-05-12T02:47:04;100831.72;;;13.67;35.68
45253;BME280;63171;50.520;30.486;2023-05-12T02:47:54;100835.00;;;13.71;35.75
45253;BME280;63171;50.520;30.486;2023-05-12T02:48:44;100828.69;;;13.73;35.81
45253;BME280;63171;50.520;30.486;2023-05-12T02:49:34;100831.09;;;13.78;35.76
45253;BME280;63171;50.520;30.486;2023-05-12T02:50:24;100826.47;;;13.81;35.91
45253;BME280;63171;50.520;30.486;2023-05-12T02:51:14;100829.09;;;13.81;35.77
45253;BME280;63171;50.520;30.486;2023-05-12T02:52:05;100822.69;;;13.85;35.64
45253;BME280;63171;50.520;30.486;2023-05-12T02:52:55;100828.91;;;13.84;35.73
45253;BME280;63171;50.520;30.486;2023-05-12T02:53:45;100827.22;;;13.83;35.64
45253;BME280;63171;50.520;30.486;2023-05-12T02:54:35;100826.47;;;13.81;35.76
45253;BME280;63171;50.520;30.486;2023-05-12T02:55:25;100833.34;;;13.84;35.67
45253;BME280;63171;50.520;30.486;2023-05-12T02:56:16;100828.38;;;13.94;35.56
45253;BME280;63171;50.520;30.486;2023-05-12T02:57:07;100830.44;;;14.03;35.56
45253;BME280;63171;50.520;30.486;2023-05-12T02:58:00;100826.28;;;13.99;35.70
45253;BME280;63171;50.520;30.486;2023-05-12T02:58:51;100839.25;;;14.02;35.72
45253;BME280;63171;50.520;30.486;2023-05-12T02:59:41;100839.44;;;13.99;35.49
45253;BME280;63171;50.520;30.486;2023-05-12T03:00:32;100837.94;;;13.95;35.63
45253;BME280;63171;50.520;30.486;2023-05-12T03:01:21;100837.66;;;13.85;35.55
45253;BME280;63171;50.520;30.486;2023-05-12T03:02:12;100832.22;;;14.02;35.70
45253;BME280;63171;50.520;30.486;2023-05-12T03:03:02;100839.09;;;14.05;35.57
45253;BME280;63171;50.520;30.486;2023-05-12T03:03:52;100837.84;;;14.10;35.74
45253;BME280;63171;50.520;30.486;2023-05-12T03:04:42;100828.56;;;14.19;35.76
45253;BME280;63171;50.520;30.486;2023-05-12T03:05:33;100836.06;;;14.25;35.67
45253;BME280;63171;50.520;30.486;2023-05-12T03:06:23;100831.44;;;14.29;35.87
45253;BME280;63171;50.520;30.486;2023-05-12T03:07:13;100832.13;;;14.32;35.67
45253;BME280;63171;50.520;30.486;2023-05-12T03:08:04;100837.00;;;14.38;35.71
45253;BME280;63171;50.520;30.486;2023-05-12T03:08:55;100831.47;;;14.43;35.71
45253;BME280;63171;50.520;30.486;2023-05-12T03:09:45;100834.78;;;14.46;35.62
45253;BME280;63171;50.520;30.486;2023-05-12T03:10:35;100835.41;;;14.50;35.73
45253;BME280;63171;50.520;30.486;2023-05-12T03:11:26;100837.94;;;14.52;35.43
45253;BME280;63171;50.520;30.486;2023-05-12T03:12:17;100839.53;;;14.54;35.58
45253;BME280;63171;50.520;30.486;2023-05-12T03:13:08;100840.88;;;14.47;35.76
45253;BME280;63171;50.520;30.486;2023-05-12T03:13:59;100831.72;;;14.53;35.59
45253;BME280;63171;50.520;30.486;2023-05-12T03:14:48;100832.69;;;14.52;35.52
45253;BME280;63171;50.520;30.486;2023-05-12T03:15:40;100840.38;;;14.55;35.46
45253;BME280;63171;50.520;30.486;2023-05-12T03:16:29;100844.53;;;14.59;35.47
45253;BME280;63171;50.520;30.486;2023-05-12T03:17:20;100840.88;;;14.61;35.78
45253;BME280;63171;50.520;30.486;2023-05-12T03:18:11;100843.28;;;14.64;35.42
45253;BME280;63171;50.520;30.486;2023-05-12T03:19:02;100842.06;;;14.70;35.53
45253;BME280;63171;50.520;30.486;2023-05-12T03:19:53;100833.50;;;14.66;35.47
45253;BME280;63171;50.520;30.486;2023-05-12T03:20:43;100838.75;;;14.66;35.66
45253;BME280;63171;50.520;30.486;2023-05-12T03:21:33;100845.47;;;14.72;35.55
45253;BME280;63171;50.520;30.486;2023-05-12T03:22:24;100838.00;;;14.78;35.68
45253;BME280;63171;50.520;30.486;2023-05-12T03:23:14;100838.63;;;14.82;35.40
45253;BME280;63171;50.520;30.486;2023-05-12T03:24:05;100839.41;;;14.84;35.51
45253;BME280;63171;50.520;30.486;2023-05-12T03:24:55;100838.94;;;14.77;35.60
45253;BME280;63171;50.520;30.486;2023-05-12T03:25:45;100842.03;;;14.84;35.37
45253;BME280;63171;50.520;30.486;2023-05-12T03:26:36;100841.72;;;14.89;35.44
45253;BME280;63171;50.520;30.486;2023-05-12T03:27:27;100848.38;;;14.94;35.48
45253;BME280;63171;50.520;30.486;2023-05-12T03:28:18;100842.00;;;14.98;35.52
45253;BME280;63171;50.520;30.486;2023-05-12T03:29:08;100848.00;;;15.00;35.63
45253;BME280;63171;50.520;30.486;2023-05-12T03:29:58;100842.53;;;15.03;35.51
45253;BME280;63171;50.520;30.486;2023-05-12T03:30:50;100843.00;;;15.10;35.57
45253;BME280;63171;50.520;30.486;2023-05-12T03:31:39;100845.31;;;15.15;35.67
45253;BME280;63171;50.520;30.486;2023-05-12T03:32:30;100840.56;;;15.20;35.48
45253;BME280;63171;50.520;30.486;2023-05-12T03:33:20;100842.38;;;15.19;35.48
45253;BME280;63171;50.520;30.486;2023-05-12T03:34:11;100842.16;;;15.22;35.34
45253;BME280;63171;50.520;30.486;2023-05-12T03:35:02;100846.31;;;15.26;35.39
45253;BME280;63171;50.520;30.486;2023-05-12T03:35:52;100838.91;;;15.31;35.59
45253;BME280;63171;50.520;30.486;2023-05-12T03:36:42;100850.09;;;15.35;35.42
45253;BME280;63171;50.520;30.486;2023-05-12T03:37:33;100853.50;;;15.37;35.46
45253;BME280;63171;50.520;30.486;2023-05-12T03:38:23;100858.38;;;15.43;35.45
45253;BME280;63171;50.520;30.486;2023-05-12T03:39:14;100857.31;;;15.46;35.35
45253;BME280;63171;50.520;30.486;2023-05-12T03:40:05;100851.81;;;15.36;35.54
45253;BME280;63171;50.520;30.486;2023-05-12T03:41:02;100849.59;;;15.43;35.35
45253;BME280;63171;50.520;30.486;2023-05-12T03:41:52;100852.78;;;15.48;35.62
45253;BME280;63171;50.520;30.486;2023-05-12T03:42:43;100853.22;;;15.54;35.51
45253;BME280;63171;50.520;30.486;2023-05-12T03:43:34;100848.56;;;15.58;35.37
45253;BME280;63171;50.520;30.486;2023-05-12T03:44:26;100849.16;;;15.63;35.36
45253;BME280;63171;50.520;30.486;2023-05-12T03:45:15;100843.56;;;15.68;35.42
45253;BME280;63171;50.520;30.486;2023-05-12T03:46:06;100851.06;;;15.74;35.42
45253;BME280;63171;50.520;30.486;2023-05-12T03:46:56;100849.16;;;15.76;35.43
45253;BME280;63171;50.520;30.486;2023-05-12T03:47:48;100856.03;;;15.78;35.56
45253;BME280;63171;50.520;30.486;2023-05-12T03:48:37;100849.59;;;15.82;35.54
45253;BME280;63171;50.520;30.486;2023-05-12T03:49:28;100854.38;;;15.90;35.51
45253;BME280;63171;50.520;30.486;2023-05-12T03:50:18;100854.66;;;15.98;35.37
45253;BME280;63171;50.520;30.486;2023-05-12T03:51:09;100856.06;;;16.04;35.44
45253;BME280;63171;50.520;30.486;2023-05-12T03:51:58;100857.41;;;16.09;35.48
45253;BME280;63171;50.520;30.486;2023-05-12T03:52:49;100851.91;;;16.12;35.28
45253;BME280;63171;50.520;30.486;2023-05-12T03:53:38;100855.00;;;16.19;35.29
45253;BME280;63171;50.520;30.486;2023-05-12T03:54:33;100856.34;;;16.24;35.39
45253;BME280;63171;50.520;30.486;2023-05-12T03:55:23;100861.28;;;16.29;35.14
45253;BME280;63171;50.520;30.486;2023-05-12T03:56:13;100854.75;;;16.35;35.28
45253;BME280;63171;50.520;30.486;2023-05-12T03:57:04;100856.94;;;16.41;35.18
45253;BME280;63171;50.520;30.486;2023-05-12T03:57:55;100854.72;;;16.47;35.15
45253;BME280;63171;50.520;30.486;2023-05-12T03:58:47;100858.84;;;16.51;35.27
45253;BME280;63171;50.520;30.486;2023-05-12T03:59:39;100859.47;;;16.55;34.96
45253;BME280;63171;50.520;30.486;2023-05-12T04:00:29;100851.94;;;16.62;35.33
45253;BME280;63171;50.520;30.486;2023-05-12T04:01:21;100856.69;;;16.69;35.05
45253;BME280;63171;50.520;30.486;2023-05-12T04:02:10;100853.63;;;16.75;35.16
45253;BME280;63171;50.520;30.486;2023-05-12T04:03:02;100851.28;;;16.83;35.13
45253;BME280;63171;50.520;30.486;2023-05-12T04:03:51;100860.69;;;16.88;35.04
45253;BME280;63171;50.520;30.486;2023-05-12T04:04:42;100853.34;;;16.91;35.02
45253;BME280;63171;50.520;30.486;2023-05-12T04:05:32;100852.94;;;16.97;35.02
45253;BME280;63171;50.520;30.486;2023-05-12T04:06:23;100851.63;;;17.03;34.90
45253;BME280;63171;50.520;30.486;2023-05-12T04:07:12;100860.91;;;17.08;35.06
45253;BME280;63171;50.520;30.486;2023-05-12T04:08:03;100857.81;;;17.14;34.97
45253;BME280;63171;50.520;30.486;2023-05-12T04:08:53;100855.66;;;17.20;35.01
45253;BME280;63171;50.520;30.486;2023-05-12T04:09:44;100860.63;;;17.24;34.88
45253;BME280;63171;50.520;30.486;2023-05-12T04:10:37;100863.78;;;17.29;34.89
45253;BME280;63171;50.520;30.486;2023-05-12T04:11:28;100857.28;;;17.33;34.96
45253;BME280;63171;50.520;30.486;2023-05-12T04:12:18;100858.66;;;17.39;34.76
45253;BME280;63171;50.520;30.486;2023-05-12T04:13:08;100860.94;;;17.43;34.91
45253;BME280;63171;50.520;30.486;2023-05-12T04:13:59;100859.63;;;17.49;34.88
45253;BME280;63171;50.520;30.486;2023-05-12T04:14:50;100859.28;;;17.54;34.82
45253;BME280;63171;50.520;30.486;2023-05-12T04:15:40;100858.09;;;17.58;34.81
45253;BME280;63171;50.520;30.486;2023-05-12T04:16:31;100857.53;;;17.65;34.94
45253;BME280;63171;50.520;30.486;2023-05-12T04:17:21;100855.00;;;17.64;34.86
45253;BME280;63171;50.520;30.486;2023-05-12T04:18:11;100855.84;;;17.64;34.79
45253;BME280;63171;50.520;30.486;2023-05-12T04:19:02;100858.75;;;17.72;34.77
45253;BME280;63171;50.520;30.486;2023-05-12T04:19:53;100859.75;;;17.83;35.10
45253;BME280;63171;50.520;30.486;2023-05-12T04:20:43;100856.75;;;17.87;34.97
45253;BME280;63171;50.520;30.486;2023-05-12T04:21:34;100852.06;;;17.91;35.13
45253;BME280;63171;50.520;30.486;2023-05-12T04:22:24;100859.19;;;17.90;35.07
45253;BME280;63171;50.520;30.486;2023-05-12T04:23:14;100856.53;;;18.01;35.21
45253;BME280;63171;50.520;30.486;2023-05-12T04:24:04;100857.03;;;18.07;35.28
45253;BME280;63171;50.520;30.486;2023-05-12T04:24:59;100855.44;;;18.15;35.37
45253;BME280;63171;50.520;30.486;2023-05-12T04:25:49;100859.44;;;18.21;35.37